Time;durP1;ratioP1;P1;durP2;ratioP2;P2;SDS_P1;SDS_P2;PMS_P1;PMS_P2;Temp;Humidity;BMP_temperature;BMP_pressure;BME280_temperature;BME280_humidity;BME280_pressure;Samples;Min_cycle;Max_cycle;Signal;HPM_P1;HPM_P2
2023/06/03 00:02:29;;;;;;;5.68;2.13;;;19.20;63.10;;;;;;10103155;28;20402;-65
2023/06/03 00:07:19;;;;;;;7.07;2.83;;;19.20;63.40;;;;;;10102129;28;20052;-63
2023/06/03 00:12:10;;;;;;;7.47;3.22;;;19.10;63.60;;;;;;10085067;28;20104;-73
2023/06/03 00:17:01;;;;;;;7.97;2.40;;;19.00;63.90;;;;;;10081576;28;20526;-63
2023/06/03 00:21:54;;;;;;;3.10;2.60;;;19.00;63.90;;;;;;10102331;28;20391;-72
2023/06/03 00:26:44;;;;;;;3.83;2.20;;;18.90;64.20;;;;;;10101654;28;20032;-62
2023/06/03 00:31:35;;;;;;;4.88;3.20;;;18.80;64.70;;;;;;10101206;28;20028;-65
2023/06/03 00:36:26;;;;;;;5.90;2.63;;;18.70;65.20;;;;;;10101476;28;20033;-64
2023/06/03 00:41:18;;;;;;;5.53;2.72;;;18.70;65.40;;;;;;10095729;28;20037;-65
2023/06/03 00:46:10;;;;;;;5.38;2.70;;;18.60;65.60;;;;;;10095234;28;20067;-63
2023/06/03 00:51:01;;;;;;;6.50;2.95;;;18.60;65.90;;;;;;10100727;28;20041;-63
2023/06/03 00:55:51;;;;;;;4.47;2.55;;;18.60;65.90;;;;;;10100463;28;20132;-68
2023/06/03 01:00:42;;;;;;;4.78;2.70;;;18.60;66.10;;;;;;10115540;28;20040;-67
2023/06/03 01:05:33;;;;;;;5.50;2.45;;;18.50;66.50;;;;;;10095099;28;20051;-60
2023/06/03 01:10:25;;;;;;;4.45;2.45;;;18.50;66.70;;;;;;10092513;28;20037;-62
2023/06/03 01:15:23;;;;;;;4.70;3.00;;;18.30;67.10;;;;;;10081949;28;20029;-70
2023/06/03 01:20:16;;;;;;;8.18;3.30;;;18.50;67.10;;;;;;10059691;28;20037;-60
2023/06/03 01:25:09;;;;;;;4.43;2.33;;;18.40;67.30;;;;;;10060892;28;20064;-62
2023/06/03 01:30:00;;;;;;;5.22;3.08;;;18.30;67.60;;;;;;10091749;28;20414;-61
2023/06/03 01:34:51;;;;;;;2.95;1.98;;;18.10;68.20;;;;;;10099492;28;20096;-61
2023/06/03 01:39:43;;;;;;;4.72;2.67;;;18.20;68.20;;;;;;10098908;28;20139;-60
2023/06/03 01:44:34;;;;;;;3.92;2.38;;;18.00;68.50;;;;;;10098980;28;20025;-63
2023/06/03 01:49:25;;;;;;;4.03;2.30;;;17.90;68.90;;;;;;10098553;28;20052;-65
2023/06/03 01:54:18;;;;;;;3.28;2.40;;;17.90;69.00;;;;;;10098134;28;20104;-62
2023/06/03 01:59:08;;;;;;;5.18;2.38;;;17.90;69.20;;;;;;10085847;28;20045;-66
2023/06/03 02:03:59;;;;;;;4.55;2.42;;;17.70;69.70;;;;;;10080708;28;20397;-65
2023/06/03 02:08:50;;;;;;;7.78;2.70;;;17.60;70.20;;;;;;10078691;28;20368;-66
2023/06/03 02:13:41;;;;;;;5.22;2.63;;;17.50;70.50;;;;;;10100740;28;20309;-62
2023/06/03 02:18:32;;;;;;;3.83;2.53;;;17.50;70.80;;;;;;10098507;28;20147;-62
2023/06/03 02:23:23;;;;;;;5.20;2.95;;;17.60;70.50;;;;;;10098296;28;20071;-63
2023/06/03 02:28:16;;;;;;;5.97;2.38;;;17.50;70.90;;;;;;10086539;28;20033;-62
2023/06/03 02:33:07;;;;;;;4.97;2.70;;;17.50;70.90;;;;;;10103623;28;20391;-61
2023/06/03 02:37:57;;;;;;;4.45;2.30;;;17.40;71.20;;;;;;10079284;28;20018;-61
2023/06/03 02:42:48;;;;;;;4.50;2.55;;;17.30;71.60;;;;;;10105885;28;20090;-60
2023/06/03 02:47:39;;;;;;;4.35;2.67;;;17.30;71.70;;;;;;10103653;28;20510;-62
2023/06/03 02:52:29;;;;;;;6.97;2.22;;;17.30;71.70;;;;;;10094137;28;20621;-63
2023/06/03 02:57:22;;;;;;;3.97;2.45;;;17.30;71.80;;;;;;10106053;28;20081;-62
2023/06/03 03:02:13;;;;;;;7.18;2.30;;;17.10;72.60;;;;;;10104306;28;20524;-61
2023/06/03 03:07:09;;;;;;;6.40;2.50;;;17.00;72.60;;;;;;10101534;28;20080;-65
2023/06/03 03:11:59;;;;;;;10.38;2.60;;;16.90;73.00;;;;;;10080136;28;20036;-67
2023/06/03 03:16:51;;;;;;;6.88;2.28;;;16.90;73.20;;;;;;10106803;28;20028;-65
2023/06/03 03:21:42;;;;;;;7.95;2.30;;;16.70;74.10;;;;;;10104948;28;20132;-64
2023/06/03 03:26:33;;;;;;;5.07;2.55;;;16.60;74.00;;;;;;10119977;28;20112;-68
2023/06/03 03:31:26;;;;;;;5.05;2.10;;;16.60;74.40;;;;;;10088424;28;20040;-61
2023/06/03 03:36:22;;;;;;;5.28;2.35;;;16.50;74.90;;;;;;10093614;28;20045;-64
2023/06/03 03:41:13;;;;;;;3.72;2.05;;;16.50;74.80;;;;;;10104149;28;20400;-67
2023/06/03 03:46:09;;;;;;;5.85;2.20;;;16.60;74.60;;;;;;10099876;28;20029;-67
2023/06/03 03:51:00;;;;;;;7.13;2.63;;;16.40;75.00;;;;;;10058470;28;20044;-72
2023/06/03 03:55:53;;;;;;;5.25;2.35;;;16.50;74.90;;;;;;10086145;28;20048;-66
2023/06/03 04:00:44;;;;;;;3.47;2.10;;;16.40;75.50;;;;;;10098566;28;20541;-62
2023/06/03 04:05:36;;;;;;;7.60;2.92;;;16.30;75.60;;;;;;10073170;28;20099;-60
2023/06/03 04:10:26;;;;;;;5.35;2.15;;;16.40;75.60;;;;;;10074667;28;20029;-64
2023/06/03 04:15:24;;;;;;;7.18;2.55;;;16.30;75.80;;;;;;10085955;28;20017;-61
2023/06/03 04:20:37;;;;;;;5.05;2.17;;;16.30;76.00;;;;;;10102413;28;20033;-62
2023/06/03 04:25:28;;;;;;;6.22;2.55;;;16.40;76.40;;;;;;10117355;28;20028;-67
2023/06/03 04:30:19;;;;;;;4.53;2.92;;;16.30;75.90;;;;;;10080579;28;20082;-63
2023/06/03 04:35:09;;;;;;;4.82;2.20;;;16.30;76.10;;;;;;10083526;28;20079;-65
2023/06/03 04:40:01;;;;;;;7.28;2.30;;;16.30;76.40;;;;;;10068863;28;20039;-65
2023/06/03 04:44:53;;;;;;;6.80;2.45;;;16.10;77.00;;;;;;10084547;28;20023;-69
2023/06/03 04:49:47;;;;;;;3.67;2.58;;;16.10;77.30;;;;;;10100420;28;20154;-66
2023/06/03 04:54:40;;;;;;;8.15;2.65;;;16.10;77.40;;;;;;10082722;28;20061;-69
2023/06/03 04:59:30;;;;;;;6.18;2.33;;;16.10;77.30;;;;;;10086196;28;20115;-64
2023/06/03 05:04:22;;;;;;;9.55;3.45;;;16.20;77.30;;;;;;10099357;28;20108;-65
2023/06/03 05:09:13;;;;;;;6.80;3.03;;;16.20;77.40;;;;;;10098846;28;20397;-68
2023/06/03 05:14:03;;;;;;;5.40;2.40;;;16.20;77.50;;;;;;10101284;28;20162;-65
2023/06/03 05:18:54;;;;;;;4.55;3.13;;;16.40;77.20;;;;;;10099758;28;20181;-68
2023/06/03 05:23:45;;;;;;;5.07;2.67;;;16.50;77.10;;;;;;10080317;28;20097;-69
2023/06/03 05:28:36;;;;;;;4.18;2.38;;;16.40;77.30;;;;;;10088377;28;20144;-69
2023/06/03 05:33:28;;;;;;;6.10;2.55;;;16.40;77.50;;;;;;10099548;28;20167;-66
2023/06/03 05:38:20;;;;;;;5.65;2.60;;;16.60;77.30;;;;;;10088857;28;20573;-75
2023/06/03 05:43:10;;;;;;;4.57;1.75;;;16.40;78.00;;;;;;10091861;28;20116;-61
2023/06/03 05:48:01;;;;;;;4.38;3.40;;;16.50;78.20;;;;;;10086197;28;20103;-67
2023/06/03 05:52:52;;;;;;;8.13;2.45;;;16.40;78.60;;;;;;10099499;28;20410;-69
2023/06/03 05:57:42;;;;;;;5.32;2.55;;;16.30;78.70;;;;;;10114762;28;20535;-74
2023/06/03 06:02:33;;;;;;;5.85;2.35;;;16.60;78.20;;;;;;10098674;28;20380;-62
2023/06/03 06:07:23;;;;;;;5.40;3.00;;;16.70;78.20;;;;;;10058036;28;20453;-69
2023/06/03 06:12:14;;;;;;;6.25;2.67;;;16.60;78.30;;;;;;10095915;28;20025;-66
2023/06/03 06:17:05;;;;;;;7.03;2.72;;;16.80;78.10;;;;;;10095490;28;20033;-65
2023/06/03 06:21:56;;;;;;;8.18;2.65;;;16.70;78.50;;;;;;10091484;28;20300;-74
2023/06/03 06:26:49;;;;;;;5.28;2.63;;;16.60;78.90;;;;;;10069178;28;20022;-67
2023/06/03 06:31:40;;;;;;;7.13;2.40;;;16.90;78.30;;;;;;10088794;28;20033;-68
2023/06/03 06:36:39;;;;;;;5.43;2.40;;;17.10;78.00;;;;;;10083165;28;20128;-70
2023/06/03 06:41:33;;;;;;;4.32;2.05;;;17.10;78.20;;;;;;10097550;28;20045;-61
2023/06/03 06:46:24;;;;;;;6.10;2.97;;;17.20;77.90;;;;;;10080892;28;20021;-66
2023/06/03 06:51:19;;;;;;;4.85;2.63;;;17.20;78.10;;;;;;10083750;28;20893;-64
2023/06/03 06:56:10;;;;;;;5.70;2.40;;;17.20;78.50;;;;;;10097438;28;20017;-66
2023/06/03 07:01:05;;;;;;;5.47;2.58;;;17.30;78.40;;;;;;10080130;28;20499;-63
2023/06/03 07:05:56;;;;;;;7.13;2.20;;;17.70;77.70;;;;;;10075972;28;20112;-63
2023/06/03 07:10:46;;;;;;;3.78;2.80;;;17.70;77.80;;;;;;10097675;28;20163;-62
2023/06/03 07:15:40;;;;;;;4.93;2.60;;;17.70;78.00;;;;;;10100338;28;20032;-63
2023/06/03 07:20:35;;;;;;;4.55;2.78;;;17.70;78.00;;;;;;10088176;28;20036;-65
2023/06/03 07:25:40;;;;;;;7.10;2.97;;;17.70;77.90;;;;;;10098026;28;20033;-63
2023/06/03 07:30:35;;;;;;;4.53;2.83;;;17.70;78.10;;;;;;10091383;28;20025;-71
2023/06/03 07:35:26;;;;;;;5.82;3.65;;;17.80;77.90;;;;;;10104615;28;20110;-61
2023/06/03 07:40:16;;;;;;;5.35;2.80;;;18.00;77.80;;;;;;10094690;28;20045;-62
2023/06/03 07:45:07;;;;;;;5.45;2.58;;;18.10;77.80;;;;;;10085434;28;20032;-64
2023/06/03 07:50:00;;;;;;;7.18;3.42;;;18.20;77.90;;;;;;10102995;28;20632;-60
2023/06/03 07:54:51;;;;;;;6.40;2.38;;;18.50;77.30;;;;;;10102846;28;20017;-61
2023/06/03 07:59:52;;;;;;;5.50;3.25;;;18.50;77.60;;;;;;10102415;28;20411;-63
2023/06/03 08:04:44;;;;;;;6.75;2.50;;;18.70;77.40;;;;;;10081058;28;20032;-63
2023/06/03 08:09:36;;;;;;;7.72;2.92;;;18.80;77.20;;;;;;10102174;28;20028;-64
2023/06/03 08:14:30;;;;;;;5.32;2.35;;;18.90;77.30;;;;;;10085250;28;20024;-63
2023/06/03 08:19:21;;;;;;;4.00;2.50;;;18.90;77.10;;;;;;10080947;28;20037;-64
2023/06/03 08:24:13;;;;;;;3.30;2.67;;;19.00;77.00;;;;;;10061875;28;20047;-62
2023/06/03 08:29:03;;;;;;;6.45;3.13;;;19.00;77.10;;;;;;10102255;28;20029;-70
2023/06/03 08:33:54;;;;;;;7.43;3.55;;;19.30;76.90;;;;;;10101212;28;20021;-64
2023/06/03 08:38:45;;;;;;;4.45;2.50;;;19.30;76.60;;;;;;10101732;28;20104;-60
2023/06/03 08:43:49;;;;;;;9.20;3.08;;;19.40;76.50;;;;;;10100770;28;20017;-67
2023/06/03 08:48:55;;;;;;;5.50;3.22;;;19.60;76.50;;;;;;10090775;28;20025;-62
2023/06/03 08:53:50;;;;;;;5.32;3.13;;;19.70;76.30;;;;;;10060724;28;20056;-63
2023/06/03 08:58:46;;;;;;;9.82;4.43;;;19.90;75.90;;;;;;10082203;28;20443;-63
2023/06/03 09:03:38;;;;;;;6.53;3.05;;;19.90;75.80;;;;;;10100344;28;20021;-64
2023/06/03 09:08:31;;;;;;;4.25;2.90;;;20.00;75.70;;;;;;10086279;28;20079;-61
2023/06/03 09:13:22;;;;;;;7.05;3.63;;;20.00;75.70;;;;;;10101784;28;20023;-62
2023/06/03 09:18:13;;;;;;;4.82;3.25;;;20.00;75.70;;;;;;10099618;28;20025;-63
2023/06/03 09:23:07;;;;;;;4.25;2.88;;;20.10;75.30;;;;;;10098185;28;20041;-67
2023/06/03 09:27:58;;;;;;;7.15;3.00;;;20.30;75.20;;;;;;10105903;28;20438;-66
2023/06/03 09:32:50;;;;;;;5.25;2.90;;;20.30;75.00;;;;;;10086249;28;20105;-70
2023/06/03 09:37:57;;;;;;;6.45;3.38;;;20.50;74.80;;;;;;10085936;28;20035;-63
2023/06/03 09:42:48;;;;;;;8.15;3.28;;;20.80;74.30;;;;;;10099255;28;20053;-62
2023/06/03 09:47:39;;;;;;;10.45;4.60;;;20.90;74.10;;;;;;10098534;28;20155;-60
2023/06/03 09:52:35;;;;;;;8.35;3.47;;;20.90;74.10;;;;;;10085127;28;20037;-62
2023/06/03 09:57:26;;;;;;;8.20;4.25;;;21.00;74.00;;;;;;10098125;28;20029;-71
2023/06/03 10:02:20;;;;;;;5.28;2.85;;;20.90;73.90;;;;;;10098200;28;20043;-61
2023/06/03 10:07:13;;;;;;;6.70;3.72;;;21.20;73.70;;;;;;10075686;28;20045;-60
2023/06/03 10:12:05;;;;;;;6.90;3.45;;;21.30;73.50;;;;;;10068428;28;20041;-64
2023/06/03 10:17:03;;;;;;;7.85;3.65;;;21.50;73.20;;;;;;10100000;28;20021;-69
2023/06/03 10:21:58;;;;;;;6.53;3.03;;;21.60;73.30;;;;;;10079954;28;20389;-65
2023/06/03 10:26:48;;;;;;;;;;;21.70;73.30;;;;;;10080453;28;20490;-64
2023/06/03 10:31:40;;;;;;;6.20;3.40;;;21.70;73.00;;;;;;10097170;28;19908;-62
2023/06/03 10:36:31;;;;;;;7.97;3.67;;;21.80;73.00;;;;;;10097933;28;20190;-65
2023/06/03 10:41:22;;;;;;;4.95;3.08;;;22.10;72.70;;;;;;10098262;28;20170;-62
2023/06/03 10:46:14;;;;;;;5.57;3.42;;;22.10;72.80;;;;;;10098076;28;20522;-66
2023/06/03 10:51:18;;;;;;;6.65;3.05;;;22.20;72.80;;;;;;10105038;28;20502;-61
2023/06/03 10:56:28;;;;;;;9.68;2.97;;;22.20;72.80;;;;;;10105600;28;20052;-61
2023/06/03 11:01:18;;;;;;;5.05;3.40;;;22.30;72.70;;;;;;10086029;28;20124;-65
2023/06/03 11:06:18;;;;;;;8.80;4.03;;;22.50;72.60;;;;;;10105060;28;20096;-64
2023/06/03 11:11:08;;;;;;;7.72;4.30;;;22.70;72.10;;;;;;10095003;28;20400;-62
2023/06/03 11:16:03;;;;;;;6.38;3.30;;;22.80;72.20;;;;;;10098985;28;20025;-62
2023/06/03 11:20:54;;;;;;;6.70;4.18;;;22.70;72.10;;;;;;10098643;28;20043;-63
2023/06/03 11:25:45;;;;;;;6.32;3.30;;;22.90;71.70;;;;;;10080925;28;20480;-62
2023/06/03 11:31:03;;;;;;;4.88;3.40;;;22.90;71.80;;;;;;10068164;28;20033;-69
2023/06/03 11:35:54;;;;;;;6.30;3.97;;;23.20;71.30;;;;;;10074966;28;20515;-65
2023/06/03 11:40:45;;;;;;;6.90;3.03;;;23.30;71.40;;;;;;10064247;28;20037;-65
2023/06/03 11:45:37;;;;;;;5.18;3.60;;;23.40;71.10;;;;;;10073612;28;20021;-67
2023/06/03 11:50:30;;;;;;;8.18;3.30;;;23.60;71.00;;;;;;10103297;28;20045;-66
2023/06/03 11:55:40;;;;;;;6.13;3.63;;;23.60;70.80;;;;;;10084021;28;20061;-66
2023/06/03 12:00:30;;;;;;;4.82;3.80;;;23.70;70.70;;;;;;10106277;28;20041;-66
2023/06/03 12:05:21;;;;;;;5.57;3.55;;;24.00;70.60;;;;;;10101544;28;20090;-69
2023/06/03 12:10:12;;;;;;;10.30;4.38;;;24.20;70.20;;;;;;10099269;28;20040;-65
2023/06/03 12:15:06;;;;;;;10.27;5.75;;;24.30;70.40;;;;;;10103166;28;20029;-65
2023/06/03 12:19:59;;;;;;;4.30;3.80;;;24.90;70.30;;;;;;10101962;28;20033;-64
2023/06/03 12:24:50;;;;;;;6.80;4.03;;;25.10;70.00;;;;;;10103423;28;20108;-69
2023/06/03 12:29:47;;;;;;;7.18;3.38;;;25.20;69.90;;;;;;10100851;28;20540;-69
2023/06/03 12:34:38;;;;;;;7.70;3.72;;;25.40;69.90;;;;;;10061928;28;20495;-63
2023/06/03 12:39:50;;;;;;;6.97;4.05;;;25.90;69.40;;;;;;10061918;28;20136;-67
2023/06/03 12:44:45;;;;;;;5.95;4.40;;;26.20;69.20;;;;;;10092125;28;20356;-64
2023/06/03 12:49:36;;;;;;;4.40;3.25;;;26.80;68.90;;;;;;10102268;28;20076;-63
2023/06/03 12:54:28;;;;;;;6.97;3.42;;;27.20;68.70;;;;;;10095079;28;20051;-62
2023/06/03 12:59:18;;;;;;;4.57;3.13;;;28.00;67.90;;;;;;10088976;28;20100;-62
2023/06/03 13:04:10;;;;;;;8.55;3.60;;;29.10;66.50;;;;;;10060552;28;20025;-68
2023/06/03 13:09:02;;;;;;;4.90;3.35;;;29.30;65.50;;;;;;10087838;28;20054;-62
2023/06/03 13:13:52;;;;;;;5.53;3.42;;;30.20;64.80;;;;;;10100765;28;20033;-62
2023/06/03 13:18:43;;;;;;;5.53;3.78;;;30.70;63.40;;;;;;10081954;28;20029;-62
2023/06/03 13:23:34;;;;;;;6.38;3.20;;;30.90;62.60;;;;;;10077103;28;20077;-63
2023/06/03 13:28:25;;;;;;;7.88;3.65;;;30.80;62.30;;;;;;10098680;28;20041;-63
2023/06/03 13:33:16;;;;;;;4.97;3.03;;;31.50;61.80;;;;;;10099403;28;20036;-66
2023/06/03 13:38:07;;;;;;;4.72;3.30;;;31.40;61.00;;;;;;10099010;28;20029;-62
2023/06/03 13:42:58;;;;;;;4.78;3.15;;;31.50;60.20;;;;;;10098848;28;20041;-64
2023/06/03 13:47:49;;;;;;;6.03;3.13;;;32.30;59.20;;;;;;10098574;28;20021;-66
2023/06/03 13:52:40;;;;;;;4.10;2.90;;;32.30;58.80;;;;;;10078647;28;20064;-62
2023/06/03 13:57:31;;;;;;;6.50;3.40;;;32.20;58.20;;;;;;10098241;28;20116;-67
2023/06/03 14:02:22;;;;;;;5.33;3.30;;;32.70;57.50;;;;;;10097184;28;20119;-65
2023/06/03 14:07:12;;;;;;;3.40;3.07;;;32.20;57.00;;;;;;10113053;28;20059;-64
2023/06/03 14:12:03;;;;;;;5.37;4.03;;;32.50;56.50;;;;;;10094628;28;20095;-66
2023/06/03 14:16:54;;;;;;;5.13;3.37;;;32.80;56.10;;;;;;10099166;28;20029;-63
2023/06/03 14:21:44;;;;;;;9.10;3.83;;;32.80;55.90;;;;;;10100410;28;20448;-63
2023/06/03 14:26:35;;;;;;;4.97;3.07;;;32.90;55.60;;;;;;10109515;28;20025;-64
2023/06/03 14:31:26;;;;;;;3.43;3.13;;;32.60;55.30;;;;;;10083264;28;20056;-67
2023/06/03 14:36:19;;;;;;;6.37;3.47;;;33.10;55.00;;;;;;10092722;28;20042;-63
2023/06/03 14:41:10;;;;;;;6.55;3.45;;;32.70;54.80;;;;;;10110956;28;20044;-65
2023/06/03 14:46:01;;;;;;;5.73;3.50;;;33.10;54.40;;;;;;10109945;28;20376;-64
2023/06/03 14:50:53;;;;;;;5.25;3.28;;;33.20;54.00;;;;;;10110442;28;20099;-66
2023/06/03 14:55:47;;;;;;;6.38;3.40;;;33.00;53.60;;;;;;10110434;28;20552;-62
2023/06/03 15:00:37;;;;;;;4.25;3.03;;;33.20;53.40;;;;;;10110331;28;20487;-64
2023/06/03 15:05:28;;;;;;;5.47;3.20;;;33.20;53.30;;;;;;10110740;28;20025;-62
2023/06/03 15:10:19;;;;;;;4.63;3.23;;;32.70;53.90;;;;;;10109745;28;20039;-64
2023/06/03 15:15:10;;;;;;;8.63;3.70;;;32.70;53.20;;;;;;10112265;28;20387;-64
2023/06/03 15:20:00;;;;;;;4.67;3.23;;;32.70;52.90;;;;;;10110000;28;20104;-63
2023/06/03 15:24:51;;;;;;;3.73;3.33;;;32.60;52.50;;;;;;10110274;28;20441;-63
2023/06/03 15:29:41;;;;;;;3.97;3.03;;;33.00;52.40;;;;;;10109918;28;20024;-65
2023/06/03 15:34:32;;;;;;;3.63;3.13;;;33.30;51.70;;;;;;10103429;28;20036;-63
2023/06/03 15:39:23;;;;;;;5.40;3.10;;;33.10;51.50;;;;;;10104374;28;20094;-66
2023/06/03 15:44:14;;;;;;;5.40;3.17;;;33.30;51.40;;;;;;10103507;28;20061;-63
2023/06/03 15:49:05;;;;;;;6.00;3.73;;;33.70;50.80;;;;;;10102813;28;20033;-62
2023/06/03 15:53:56;;;;;;;4.97;3.23;;;34.20;50.70;;;;;;10088985;28;20079;-66
2023/06/03 15:58:47;;;;;;;5.23;3.13;;;34.90;50.20;;;;;;10099842;28;20025;-62
2023/06/03 16:03:38;;;;;;;5.40;3.20;;;35.30;49.90;;;;;;10102179;28;20025;-63
2023/06/03 16:08:29;;;;;;;5.63;3.57;;;36.00;49.40;;;;;;10093992;28;20017;-62
2023/06/03 16:13:20;;;;;;;3.90;3.50;;;35.90;49.00;;;;;;10103702;28;20275;-64
2023/06/03 16:18:10;;;;;;;6.20;3.63;;;36.70;48.30;;;;;;10102534;28;20013;-62
2023/06/03 16:23:01;;;;;;;5.93;3.93;;;37.70;47.60;;;;;;10101611;28;20471;-64
2023/06/03 16:27:53;;;;;;;6.07;3.40;;;37.70;47.00;;;;;;10116752;28;20104;-67
2023/06/03 16:32:43;;;;;;;;;;;37.70;46.80;;;;;;10103859;28;20036;-63
2023/06/03 16:37:34;;;;;;;5.87;3.80;;;38.20;46.30;;;;;;10072417;28;20009;-62
2023/06/03 16:42:25;;;;;;;4.85;3.80;;;38.10;46.90;;;;;;10079638;28;20036;-63
2023/06/03 16:47:16;;;;;;;5.93;3.47;;;38.90;46.50;;;;;;10100085;28;20029;-66
2023/06/03 16:52:06;;;;;;;;;;;38.70;46.60;;;;;;10093294;28;20048;-61
2023/06/03 16:56:57;;;;;;;5.33;3.03;;;38.60;46.40;;;;;;10084166;28;19909;-63
2023/06/03 17:01:48;;;;;;;6.95;3.40;;;37.70;47.30;;;;;;10088277;28;20090;-61
2023/06/03 17:06:39;;;;;;;4.63;3.73;;;37.00;48.30;;;;;;10083895;28;20380;-62
2023/06/03 17:11:30;;;;;;;8.23;3.70;;;36.40;47.80;;;;;;10099931;28;20037;-63
2023/06/03 17:16:21;;;;;;;5.13;3.50;;;36.10;48.00;;;;;;10102895;28;20483;-65
2023/06/03 17:21:12;;;;;;;5.73;3.47;;;36.20;48.20;;;;;;10100549;28;20033;-70
2023/06/03 17:26:02;;;;;;;8.50;3.80;;;36.00;48.20;;;;;;10115005;28;20144;-69
2023/06/03 17:30:53;;;;;;;4.97;2.80;;;36.70;48.00;;;;;;10081161;28;20033;-69
2023/06/03 17:35:44;;;;;;;4.83;3.40;;;35.70;48.40;;;;;;10090360;28;20018;-63
2023/06/03 17:40:35;;;;;;;4.73;3.30;;;34.10;49.40;;;;;;10094488;28;20120;-64
2023/06/03 17:45:34;;;;;;;6.78;3.25;;;33.50;49.90;;;;;;10100838;28;20051;-65
2023/06/03 17:50:28;;;;;;;5.60;3.92;;;32.90;50.40;;;;;;10067730;28;20092;-63
2023/06/03 17:55:19;;;;;;;7.32;4.03;;;32.50;50.90;;;;;;10100451;28;20025;-64
2023/06/03 18:00:11;;;;;;;6.03;3.50;;;31.70;51.50;;;;;;10070177;28;20120;-62
2023/06/03 18:05:02;;;;;;;4.32;3.28;;;29.90;53.10;;;;;;10037173;23;20050;-64
2023/06/03 18:09:52;;;;;;;5.88;3.38;;;28.70;54.10;;;;;;10015354;28;20375;-62
2023/06/03 18:14:43;;;;;;;6.93;3.25;;;28.20;54.30;;;;;;10016662;28;20389;-61
2023/06/03 18:19:34;;;;;;;5.28;3.38;;;27.90;54.50;;;;;;10017395;28;20120;-60
2023/06/03 18:24:24;;;;;;;5.97;3.33;;;27.60;55.10;;;;;;10014192;28;20565;-63
2023/06/03 18:29:19;;;;;;;9.55;3.58;;;27.30;55.40;;;;;;10016375;28;20042;-62
2023/06/03 18:34:10;;;;;;;6.78;3.90;;;27.20;55.80;;;;;;10018531;28;20983;-63
2023/06/03 18:39:01;;;;;;;7.90;3.45;;;26.90;56.30;;;;;;10018232;28;20467;-61
2023/06/03 18:43:51;;;;;;;3.95;3.40;;;26.80;56.40;;;;;;10019042;28;20049;-61
2023/06/03 18:48:42;;;;;;;9.35;4.20;;;26.60;56.80;;;;;;10018106;28;20022;-62
2023/06/03 18:53:33;;;;;;;5.70;3.05;;;26.40;57.20;;;;;;10018900;28;20040;-64
2023/06/03 18:58:25;;;;;;;6.70;3.30;;;26.40;57.20;;;;;;10017203;28;20022;-62
2023/06/03 19:03:15;;;;;;;6.00;3.33;;;26.20;57.30;;;;;;10017940;28;20526;-61
2023/06/03 19:08:06;;;;;;;5.60;3.67;;;26.10;57.40;;;;;;10020450;28;20021;-61
2023/06/03 19:12:57;;;;;;;5.43;3.17;;;26.00;57.60;;;;;;10019943;28;20077;-60
2023/06/03 19:17:47;;;;;;;5.78;3.50;;;26.00;57.70;;;;;;10025785;28;20030;-61
2023/06/03 19:22:39;;;;;;;6.97;4.20;;;26.00;57.80;;;;;;10024544;28;20400;-63
2023/06/03 19:27:29;;;;;;;6.32;3.97;;;25.80;58.00;;;;;;10024878;28;20026;-62
2023/06/03 19:32:20;;;;;;;4.68;3.45;;;25.60;58.60;;;;;;10025136;28;20030;-61
2023/06/03 19:37:11;;;;;;;8.70;3.45;;;25.50;58.50;;;;;;10019484;28;20032;-62
2023/06/03 19:42:01;;;;;;;4.70;3.38;;;25.50;58.50;;;;;;10022703;28;20132;-60
2023/06/03 19:46:52;;;;;;;5.80;3.70;;;25.30;59.00;;;;;;10023634;28;20495;-60
2023/06/03 19:51:43;;;;;;;6.75;3.30;;;25.20;58.90;;;;;;10011026;28;20041;-61
2023/06/03 19:56:34;;;;;;;4.82;3.85;;;25.20;59.00;;;;;;10022707;28;20018;-63
2023/06/03 20:01:24;;;;;;;7.35;3.58;;;25.00;59.20;;;;;;10017601;28;20504;-63
2023/06/03 20:06:15;;;;;;;5.63;3.45;;;24.90;59.40;;;;;;10019728;28;20400;-61
2023/06/03 20:11:06;;;;;;;5.38;3.08;;;24.80;59.70;;;;;;10020206;28;20046;-61
2023/06/03 20:15:56;;;;;;;5.18;3.40;;;24.70;59.60;;;;;;10022506;28;20018;-61
2023/06/03 20:20:47;;;;;;;4.50;3.10;;;24.60;59.80;;;;;;10022516;28;20092;-62
2023/06/03 20:25:38;;;;;;;5.10;3.20;;;24.60;59.90;;;;;;10022615;28;20436;-60
2023/06/03 20:30:31;;;;;;;6.68;3.25;;;24.50;60.00;;;;;;10022466;28;20534;-61
2023/06/03 20:35:22;;;;;;;4.60;2.63;;;24.40;60.20;;;;;;10022650;28;20167;-62
2023/06/03 20:40:13;;;;;;;6.28;2.97;;;24.40;60.10;;;;;;10021126;28;20177;-63
2023/06/03 20:45:04;;;;;;;5.90;3.50;;;24.40;60.30;;;;;;10021320;28;20531;-62
2023/06/03 20:49:55;;;;;;;6.35;3.72;;;24.40;60.20;;;;;;10019952;28;20610;-63
2023/06/03 20:54:46;;;;;;;7.38;3.58;;;24.20;60.40;;;;;;10020327;28;20029;-61
2023/06/03 20:59:36;;;;;;;4.20;2.90;;;24.20;60.50;;;;;;10010596;28;20034;-60
2023/06/03 21:04:27;;;;;;;4.35;2.90;;;24.00;60.60;;;;;;10020833;28;20050;-60
2023/06/03 21:09:17;;;;;;;3.80;2.97;;;23.90;60.70;;;;;;10021102;28;20025;-60
2023/06/03 21:14:11;;;;;;;3.30;2.97;;;23.90;60.90;;;;;;10020466;28;20022;-60
2023/06/03 21:19:02;;;;;;;4.40;2.97;;;23.80;60.90;;;;;;10020383;28;20042;-60
2023/06/03 21:23:52;;;;;;;6.32;3.67;;;23.70;61.10;;;;;;10021459;28;20431;-60
2023/06/03 21:28:43;;;;;;;5.07;3.13;;;23.60;61.20;;;;;;10020408;28;20022;-60
2023/06/03 21:33:34;;;;;;;4.55;2.92;;;23.50;61.50;;;;;;10020017;28;20614;-60
2023/06/03 21:38:26;;;;;;;6.95;3.20;;;23.50;61.50;;;;;;10020807;28;20068;-61
2023/06/03 21:43:16;;;;;;;5.60;3.22;;;23.50;61.80;;;;;;10020180;28;20180;-60
2023/06/03 21:48:07;;;;;;;3.55;2.72;;;23.30;61.90;;;;;;10019447;28;20275;-61
2023/06/03 21:52:58;;;;;;;10.55;4.68;;;23.20;62.10;;;;;;10019797;28;20499;-62
2023/06/03 21:57:50;;;;;;;6.15;3.58;;;23.00;62.40;;;;;;10019384;28;20044;-61
2023/06/03 22:02:41;;;;;;;7.45;3.35;;;22.90;62.60;;;;;;10019582;28;20507;-65
2023/06/03 22:07:32;;;;;;;10.30;3.88;;;22.70;62.90;;;;;;10019362;28;20022;-61
2023/06/03 22:12:23;;;;;;;6.03;3.58;;;22.70;62.90;;;;;;10018764;28;20018;-63
2023/06/03 22:17:13;;;;;;;6.97;3.00;;;22.70;62.90;;;;;;10019428;28;20022;-63
2023/06/03 22:22:04;;;;;;;5.32;3.20;;;22.50;63.20;;;;;;10015086;28;20104;-65
2023/06/03 22:26:55;;;;;;;6.13;2.70;;;22.30;63.50;;;;;;10003487;28;20036;-61
2023/06/03 22:31:45;;;;;;;5.10;2.58;;;22.10;64.00;;;;;;10019187;28;20133;-63
2023/06/03 22:36:36;;;;;;;6.00;2.90;;;22.10;63.80;;;;;;10017719;28;20026;-63
2023/06/03 22:41:27;;;;;;;4.80;3.00;;;21.90;64.00;;;;;;10019531;28;20050;-59
2023/06/03 22:46:17;;;;;;;6.03;2.80;;;21.90;64.00;;;;;;10024090;28;20032;-63
2023/06/03 22:51:08;;;;;;;3.80;2.58;;;21.70;64.10;;;;;;10026300;28;20022;-60
2023/06/03 22:55:59;;;;;;;3.28;2.30;;;21.60;64.00;;;;;;10025712;28;20136;-62
2023/06/03 23:00:49;;;;;;;4.65;2.40;;;21.50;63.90;;;;;;10013935;28;20103;-65
2023/06/03 23:05:40;;;;;;;4.50;2.40;;;21.50;63.70;;;;;;10026138;28;20026;-62
2023/06/03 23:10:31;;;;;;;4.07;2.50;;;21.40;63.50;;;;;;10025196;28;20052;-63
2023/06/03 23:15:22;;;;;;;2.95;2.08;;;21.40;63.50;;;;;;10024091;28;20409;-60
2023/06/03 23:20:24;;;;;;;3.80;2.03;;;21.20;63.60;;;;;;10021403;28;20038;-60
2023/06/03 23:25:14;;;;;;;3.95;1.92;;;21.20;63.40;;;;;;10012834;28;20036;-60
2023/06/03 23:30:06;;;;;;;2.00;1.75;;;21.10;63.30;;;;;;10011926;28;20372;-60
2023/06/03 23:34:56;;;;;;;3.90;1.77;;;21.00;63.40;;;;;;10025103;28;20030;-64
2023/06/03 23:39:47;;;;;;;2.17;1.55;;;21.00;63.20;;;;;;10024554;28;20030;-63
2023/06/03 23:44:38;;;;;;;3.97;2.17;;;21.00;63.20;;;;;;10023582;28;20029;-61
2023/06/03 23:49:28;;;;;;;3.35;1.25;;;20.90;63.30;;;;;;10024198;28;20034;-61
2023/06/03 23:54:19;;;;;;;2.40;1.60;;;20.90;63.00;;;;;;10019851;28;20391;-61
2023/06/03 23:59:10;;;;;;;2.75;1.55;;;20.80;63.00;;;;;;10020430;28;20045;-61
